ACF weather

Brisbane Archerfield Airport
Brisbane, Queensland, Australia

Public forecast

Using degrees Celsius for public forecast. Weather courtesy of forecast.io.

METAR (pilot weather report)

Closest report is Brisbane International Airport, 12.6 nm (23.3 km) NNE. Retrieved 2017/06/28 04:30 UTC (19 minutes ago):

YBBN 280430Z 04009KT 9999 FEW028 SCT220 22/15 Q1022 NOSIG

TAF (pilot weather forecast)

Forecast is more than 12 hours old.

Closest forecast is Brisbane International Airport, 12.6 nm (23.3 km) NNE. Retrieved 2017/06/27 00:35 UTC (1 day ago):

TAF YBBN 272320Z 2800/2906 20006KT 9999 FEW030 FM280200 04010KT 9999 SCT040 FM281000 34005KT 9999 SCT030 FM290100 01010KT 9999 FEW045